Time;durP1;ratioP1;P1;durP2;ratioP2;P2;SDS_P1;SDS_P2;PMS_P1;PMS_P2;Temp;Humidity;BMP_temperature;BMP_pressure;BME280_temperature;BME280_humidity;BME280_pressure;Samples;Min_cycle;Max_cycle;Signal;HPM_P1;HPM_P2
2023/08/28 00:01:32;;;;;;;5.15;2.13;;;14.70;99.90;;;;;;4918645;29;20023;-80
2023/08/28 00:03:57;;;;;;;4.40;2.00;;;14.70;99.90;;;;;;4919225;29;20038;-80
2023/08/28 00:06:23;;;;;;;4.03;2.50;;;14.70;99.90;;;;;;4917612;29;20028;-80
2023/08/28 00:08:48;;;;;;;5.15;2.25;;;14.70;99.90;;;;;;4916634;29;20024;-79
2023/08/28 00:11:14;;;;;;;4.53;2.20;;;14.70;99.90;;;;;;4918775;29;20031;-80
2023/08/28 00:13:39;;;;;;;4.20;2.28;;;14.70;99.90;;;;;;4921377;29;20024;-80
2023/08/28 00:16:05;;;;;;;3.30;2.20;;;14.70;99.90;;;;;;4922995;29;20028;-80
2023/08/28 00:18:30;;;;;;;3.58;2.40;;;14.70;99.90;;;;;;4920957;29;20103;-80
2023/08/28 00:20:56;;;;;;;4.50;2.40;;;14.70;99.90;;;;;;4920065;29;20392;-80
2023/08/28 00:23:21;;;;;;;4.35;2.38;;;14.70;99.90;;;;;;4919356;29;20031;-78
2023/08/28 00:25:47;;;;;;;3.53;2.30;;;14.70;99.90;;;;;;4921349;29;20066;-78
2023/08/28 00:28:12;;;;;;;3.78;2.25;;;14.60;99.90;;;;;;4920354;29;20039;-78
2023/08/28 00:30:38;;;;;;;4.45;2.20;;;14.60;99.90;;;;;;4918137;29;20134;-78
2023/08/28 00:33:04;;;;;;;6.05;2.38;;;14.60;99.90;;;;;;4918638;29;20182;-78
2023/08/28 00:35:29;;;;;;;3.45;2.25;;;14.60;99.90;;;;;;4920799;29;20172;-78
2023/08/28 00:37:55;;;;;;;4.78;2.10;;;14.60;99.90;;;;;;4918636;29;20023;-78
2023/08/28 00:40:20;;;;;;;4.03;2.15;;;14.60;99.90;;;;;;4920220;29;20034;-78
2023/08/28 00:42:46;;;;;;;4.38;2.33;;;14.60;99.90;;;;;;4918723;29;20035;-78
2023/08/28 00:45:11;;;;;;;4.25;2.15;;;14.60;99.90;;;;;;4918722;29;20033;-78
2023/08/28 00:47:38;;;;;;;3.55;2.15;;;14.60;99.90;;;;;;4917244;29;20427;-78
2023/08/28 00:50:04;;;;;;;3.30;2.10;;;14.60;99.90;;;;;;4920692;29;20047;-78
2023/08/28 00:52:30;;;;;;;2.53;2.25;;;14.60;99.90;;;;;;4919212;29;20030;-78
2023/08/28 00:54:56;;;;;;;3.45;2.30;;;14.60;99.90;;;;;;4921617;29;20036;-78
2023/08/28 00:57:23;;;;;;;3.35;1.92;;;14.60;99.90;;;;;;4917863;29;20027;-78
2023/08/28 00:59:49;;;;;;;4.07;2.30;;;14.60;99.90;;;;;;4918588;29;20044;-78
2023/08/28 01:02:14;;;;;;;3.95;2.42;;;14.60;99.90;;;;;;4919963;29;20031;-78
2023/08/28 01:04:40;;;;;;;3.40;2.50;;;14.60;99.90;;;;;;4917870;29;20032;-78
2023/08/28 01:07:21;;;;;;;3.60;2.38;;;14.60;99.90;;;;;;4916972;29;20031;-78
2023/08/28 01:10:07;;;;;;;4.20;2.50;;;14.60;99.90;;;;;;4919689;29;20070;-78
2023/08/28 01:12:44;;;;;;;;;;;14.60;99.90;;;;;;4920689;29;20678;-78
2023/08/28 01:15:17;;;;;;;4.90;2.50;;;14.50;99.90;;;;;;4920337;29;19942;-78
2023/08/28 01:17:44;;;;;;;3.20;2.45;;;14.50;99.90;;;;;;4918769;29;20115;-78
2023/08/28 01:20:12;;;;;;;2.80;2.05;;;14.60;99.90;;;;;;4917494;29;20028;-78
2023/08/28 01:22:57;;;;;;;4.57;2.13;;;14.60;99.90;;;;;;4920446;29;20043;-78
2023/08/28 01:25:27;;;;;;;4.30;2.73;;;14.50;99.90;;;;;;4920120;29;20036;-78
2023/08/28 01:27:53;;;;;;;2.83;2.15;;;14.50;99.90;;;;;;4917515;29;20036;-78
2023/08/28 01:30:18;;;;;;;3.35;2.17;;;14.50;99.90;;;;;;4917257;29;20097;-78
2023/08/28 01:32:45;;;;;;;3.45;2.22;;;14.50;99.90;;;;;;4917607;29;20408;-78
2023/08/28 01:35:20;;;;;;;4.50;2.65;;;14.50;99.90;;;;;;4919228;29;20714;-78
2023/08/28 01:38:08;;;;;;;3.42;2.40;;;14.50;99.90;;;;;;4918208;29;20461;-78
2023/08/28 01:40:39;;;;;;;6.75;2.33;;;14.50;99.90;;;;;;4920462;29;20094;-78
2023/08/28 01:43:10;;;;;;;3.67;2.28;;;14.50;99.90;;;;;;4917781;29;20028;-78
2023/08/28 01:45:37;;;;;;;6.18;2.38;;;14.50;99.90;;;;;;4919084;29;20514;-78
2023/08/28 01:48:04;;;;;;;5.43;2.78;;;14.50;99.90;;;;;;4916563;29;20059;-78
2023/08/28 01:50:29;;;;;;;3.85;2.30;;;14.50;99.90;;;;;;4919774;29;20036;-78
2023/08/28 01:52:55;;;;;;;3.53;2.47;;;14.40;99.90;;;;;;4918744;29;20488;-78
2023/08/28 01:55:45;;;;;;;4.53;2.90;;;14.40;99.90;;;;;;4918779;29;20024;-78
2023/08/28 01:58:13;;;;;;;6.82;2.88;;;14.40;99.90;;;;;;4919571;29;20035;-78
2023/08/28 02:00:39;;;;;;;5.55;2.97;;;14.40;99.90;;;;;;4916394;29;20752;-78
2023/08/28 02:03:06;;;;;;;3.95;2.65;;;14.40;99.90;;;;;;4919811;29;20027;-78
2023/08/28 02:05:32;;;;;;;4.25;2.42;;;14.40;99.90;;;;;;4916824;29;20507;-78
2023/08/28 02:07:57;;;;;;;5.13;2.50;;;14.30;99.90;;;;;;4917436;29;20107;-78
2023/08/28 02:10:23;;;;;;;5.63;2.60;;;14.30;99.90;;;;;;4917003;29;20645;-78
2023/08/28 02:12:49;;;;;;;6.00;2.47;;;14.30;99.90;;;;;;4917404;29;20042;-78
2023/08/28 02:15:14;;;;;;;3.85;2.53;;;14.30;99.90;;;;;;4917925;29;20107;-78
2023/08/28 02:17:40;;;;;;;9.80;2.55;;;14.30;99.90;;;;;;4914165;29;20032;-78
2023/08/28 02:20:06;;;;;;;3.60;2.83;;;14.30;99.90;;;;;;4915890;29;20060;-78
2023/08/28 02:22:31;;;;;;;4.25;2.90;;;14.30;99.90;;;;;;4916635;29;20063;-78
2023/08/28 02:24:58;;;;;;;5.28;3.00;;;14.30;99.90;;;;;;4914691;29;20123;-77
2023/08/28 02:27:24;;;;;;;5.45;2.88;;;14.30;99.90;;;;;;4915626;29;20034;-78
2023/08/28 02:29:49;;;;;;;5.30;2.72;;;14.30;99.90;;;;;;4916157;29;20055;-78
2023/08/28 02:32:15;;;;;;;5.05;2.90;;;14.20;99.90;;;;;;4915925;29;20110;-77
2023/08/28 02:34:41;;;;;;;5.68;2.78;;;14.30;99.90;;;;;;4916315;29;20470;-78
2023/08/28 02:37:06;;;;;;;7.35;2.88;;;14.30;99.90;;;;;;4915664;29;20024;-78
2023/08/28 02:39:32;;;;;;;6.53;3.20;;;14.30;99.90;;;;;;4917886;29;20467;-78
2023/08/28 02:41:57;;;;;;;4.15;2.53;;;14.30;99.90;;;;;;4916323;29;20031;-78
2023/08/28 02:44:23;;;;;;;3.40;2.67;;;14.20;99.90;;;;;;4915539;29;20032;-78
2023/08/28 02:46:48;;;;;;;4.10;2.78;;;14.20;99.90;;;;;;4916497;29;20031;-78
2023/08/28 02:49:14;;;;;;;4.88;3.05;;;14.20;99.90;;;;;;4917427;29;20023;-78
2023/08/28 02:51:39;;;;;;;5.78;2.83;;;14.20;99.90;;;;;;4918910;29;20410;-78
2023/08/28 02:54:05;;;;;;;5.93;2.90;;;14.20;99.90;;;;;;4918540;29;20023;-78
2023/08/28 02:56:49;;;;;;;4.22;3.00;;;14.20;99.90;;;;;;4916423;29;20037;-78
2023/08/28 02:59:14;;;;;;;3.90;3.13;;;14.10;99.90;;;;;;4918112;29;20792;-78
2023/08/28 03:01:40;;;;;;;5.68;3.20;;;14.10;99.90;;;;;;4916734;29;20028;-78
2023/08/28 03:04:06;;;;;;;4.53;3.15;;;14.10;99.90;;;;;;4920348;29;20035;-78
2023/08/28 03:06:35;;;;;;;6.93;3.30;;;14.10;99.90;;;;;;4917493;29;20764;-78
2023/08/28 03:09:01;;;;;;;5.10;2.80;;;14.10;99.90;;;;;;4915889;29;20031;-78
2023/08/28 03:11:27;;;;;;;5.63;3.17;;;14.10;99.90;;;;;;4917002;29;20518;-78
2023/08/28 03:13:52;;;;;;;6.45;2.78;;;14.10;99.90;;;;;;4919149;29;20031;-77
2023/08/28 03:16:18;;;;;;;4.53;2.85;;;14.10;99.90;;;;;;4917614;29;20062;-79
2023/08/28 03:18:43;;;;;;;5.95;2.88;;;14.10;99.90;;;;;;4914752;29;20043;-78
2023/08/28 03:21:09;;;;;;;5.38;2.90;;;14.10;99.90;;;;;;4915443;29;20118;-78
2023/08/28 03:23:34;;;;;;;7.35;3.30;;;14.00;99.90;;;;;;4915996;29;20551;-78
2023/08/28 03:26:00;;;;;;;4.65;3.00;;;14.00;99.90;;;;;;4917623;29;20055;-78
2023/08/28 03:28:25;;;;;;;4.50;3.00;;;14.00;99.90;;;;;;4918292;29;20055;-78
2023/08/28 03:30:54;;;;;;;5.65;3.30;;;14.10;99.90;;;;;;4918599;29;20074;-78
2023/08/28 03:33:20;;;;;;;5.15;3.13;;;14.00;99.90;;;;;;4918190;29;20035;-77
2023/08/28 03:35:45;;;;;;;4.78;3.42;;;14.10;99.90;;;;;;4917200;29;20027;-77
2023/08/28 03:38:11;;;;;;;5.38;3.50;;;14.00;99.90;;;;;;4916473;29;20016;-77
2023/08/28 03:40:37;;;;;;;4.68;3.47;;;14.10;99.90;;;;;;4916786;29;20055;-78
2023/08/28 03:43:03;;;;;;;5.25;3.50;;;14.00;99.90;;;;;;4920332;29;20111;-78
2023/08/28 03:45:29;;;;;;;6.88;4.13;;;14.00;99.90;;;;;;4917108;29;20056;-78
2023/08/28 03:47:54;;;;;;;6.28;3.75;;;14.00;99.90;;;;;;4920606;29;20122;-78
2023/08/28 03:50:20;;;;;;;8.13;4.10;;;14.00;99.90;;;;;;4921478;29;20027;-78
2023/08/28 03:52:45;;;;;;;6.65;4.05;;;14.00;99.90;;;;;;4919737;29;20946;-78
2023/08/28 03:55:11;;;;;;;6.47;3.95;;;14.00;99.90;;;;;;4921663;29;20034;-78
2023/08/28 03:57:37;;;;;;;6.95;3.75;;;14.00;99.90;;;;;;4918962;29;20028;-77
2023/08/28 04:00:07;;;;;;;6.13;3.60;;;14.00;99.90;;;;;;4920581;29;21085;-78
2023/08/28 04:02:34;;;;;;;5.30;3.97;;;14.00;99.90;;;;;;4918941;29;20035;-78
2023/08/28 04:05:03;;;;;;;8.52;4.05;;;14.00;99.90;;;;;;4922293;29;20090;-78
2023/08/28 04:07:28;;;;;;;5.78;3.83;;;13.90;99.90;;;;;;4921486;29;20422;-78
2023/08/28 04:09:54;;;;;;;6.10;4.10;;;13.90;99.90;;;;;;4920855;29;20023;-80
2023/08/28 04:12:19;;;;;;;8.20;4.85;;;14.00;99.90;;;;;;4922665;29;20026;-79
2023/08/28 04:14:45;;;;;;;6.85;4.57;;;14.00;99.90;;;;;;4919592;29;20071;-79
2023/08/28 04:17:10;;;;;;;6.80;4.32;;;14.00;99.90;;;;;;4922171;29;20407;-80
2023/08/28 04:19:36;;;;;;;6.43;4.65;;;14.00;99.90;;;;;;4920620;29;20032;-80
2023/08/28 04:22:02;;;;;;;11.40;4.88;;;14.00;99.90;;;;;;4921935;29;20051;-80
2023/08/28 04:24:28;;;;;;;6.45;4.75;;;14.00;99.90;;;;;;4921448;29;20046;-80
2023/08/28 04:26:53;;;;;;;8.38;5.13;;;13.90;99.90;;;;;;4920175;29;20076;-80
2023/08/28 04:29:19;;;;;;;6.85;4.95;;;14.00;99.90;;;;;;4920531;29;20035;-80
2023/08/28 04:31:44;;;;;;;9.65;5.93;;;13.90;99.90;;;;;;4922389;29;20057;-80
2023/08/28 04:34:10;;;;;;;8.43;5.20;;;13.90;99.90;;;;;;4920825;29;20031;-81
2023/08/28 04:36:35;;;;;;;7.53;5.00;;;13.90;99.90;;;;;;4921435;29;20028;-80
2023/08/28 04:39:01;;;;;;;7.32;5.57;;;13.90;99.90;;;;;;4919729;29;20072;-80
2023/08/28 04:41:26;;;;;;;7.25;4.82;;;13.90;99.90;;;;;;4920850;29;20031;-80
2023/08/28 04:43:52;;;;;;;7.53;5.53;;;13.90;99.90;;;;;;4920869;29;20027;-80
2023/08/28 04:46:17;;;;;;;6.28;5.22;;;13.90;99.90;;;;;;4919624;29;20028;-80
2023/08/28 04:48:43;;;;;;;8.32;5.90;;;13.90;99.90;;;;;;4922288;29;20032;-80
2023/08/28 04:51:08;;;;;;;10.63;6.28;;;13.90;99.90;;;;;;4920281;29;20035;-80
2023/08/28 04:53:34;;;;;;;8.00;6.55;;;13.90;99.90;;;;;;4920919;29;20119;-80
2023/08/28 04:55:59;;;;;;;7.85;5.88;;;13.90;99.90;;;;;;4918903;29;20023;-80
2023/08/28 04:58:25;;;;;;;8.10;6.32;;;13.90;99.90;;;;;;4920207;29;20024;-80
2023/08/28 05:00:51;;;;;;;9.75;6.50;;;13.90;99.90;;;;;;4921300;29;20072;-80
2023/08/28 05:03:16;;;;;;;8.85;6.53;;;13.90;99.90;;;;;;4921092;29;20711;-80
2023/08/28 05:05:42;;;;;;;9.25;6.97;;;13.90;99.90;;;;;;4921468;29;20241;-80
2023/08/28 05:08:08;;;;;;;8.48;6.18;;;13.80;99.90;;;;;;4919759;29;20182;-80
2023/08/28 05:10:33;;;;;;;9.07;6.40;;;13.80;99.90;;;;;;4919830;29;20039;-80
2023/08/28 05:12:59;;;;;;;8.75;6.85;;;13.80;99.90;;;;;;4915034;29;20447;-80
2023/08/28 05:15:25;;;;;;;8.82;6.82;;;13.80;99.90;;;;;;4921196;29;20036;-80
2023/08/28 05:17:50;;;;;;;9.48;7.05;;;13.80;99.90;;;;;;4919485;29;20674;-80
2023/08/28 05:20:17;;;;;;;10.55;7.30;;;13.80;99.90;;;;;;4921724;29;20044;-80
2023/08/28 05:22:42;;;;;;;9.60;7.05;;;13.80;99.90;;;;;;4920879;29;20604;-80
2023/08/28 05:25:08;;;;;;;8.48;7.38;;;13.80;99.90;;;;;;4918853;29;20027;-80
2023/08/28 05:27:33;;;;;;;8.73;7.05;;;13.80;99.90;;;;;;4919006;29;20042;-80
2023/08/28 05:29:59;;;;;;;10.10;7.13;;;13.80;99.90;;;;;;4919231;29;20420;-80
2023/08/28 05:32:24;;;;;;;8.45;6.57;;;13.80;99.90;;;;;;4916399;29;20039;-79
2023/08/28 05:34:50;;;;;;;9.02;7.22;;;13.90;99.90;;;;;;4915175;29;20134;-79
2023/08/28 05:37:16;;;;;;;9.23;6.88;;;13.80;99.90;;;;;;4918863;29;20043;-79
2023/08/28 05:39:43;;;;;;;9.85;7.30;;;13.80;99.90;;;;;;4917229;29;20087;-79
2023/08/28 05:42:08;;;;;;;11.95;7.53;;;13.80;99.90;;;;;;4916785;29;20059;-78
2023/08/28 05:44:34;;;;;;;8.70;7.72;;;13.80;99.90;;;;;;4915534;29;20115;-78
2023/08/28 05:47:00;;;;;;;12.05;7.13;;;13.80;99.90;;;;;;4916868;29;20055;-79
2023/08/28 05:49:26;;;;;;;11.45;7.90;;;13.80;99.90;;;;;;4918225;29;20032;-79
2023/08/28 05:51:51;;;;;;;8.70;7.80;;;13.80;99.90;;;;;;4915903;29;21104;-79
2023/08/28 05:54:17;;;;;;;8.65;7.75;;;13.80;99.90;;;;;;4916604;29;20131;-78
2023/08/28 05:56:43;;;;;;;10.40;8.00;;;13.80;99.90;;;;;;4917299;29;20848;-79
2023/08/28 05:59:08;;;;;;;11.80;7.53;;;13.80;99.90;;;;;;4915832;29;20415;-79
2023/08/28 06:01:34;;;;;;;16.92;8.13;;;13.80;99.90;;;;;;4917881;29;20056;-78
2023/08/28 06:03:59;;;;;;;10.63;8.13;;;13.80;99.90;;;;;;4917403;29;20475;-80
2023/08/28 06:06:25;;;;;;;11.95;8.82;;;13.80;99.90;;;;;;4918535;29;20135;-79
2023/08/28 06:08:50;;;;;;;11.23;8.18;;;13.80;99.90;;;;;;4914844;29;20063;-79
2023/08/28 06:11:16;;;;;;;9.27;7.90;;;13.80;99.90;;;;;;4915924;29;20154;-79
2023/08/28 06:13:41;;;;;;;11.85;7.35;;;13.80;99.90;;;;;;4914609;29;20023;-79
2023/08/28 06:16:07;;;;;;;8.38;7.47;;;13.80;99.90;;;;;;4916706;29;20024;-79
2023/08/28 06:18:33;;;;;;;8.70;7.78;;;13.70;99.90;;;;;;4916365;29;21017;-79
2023/08/28 06:20:58;;;;;;;10.30;7.70;;;13.70;99.90;;;;;;4916355;29;20122;-79
2023/08/28 06:23:24;;;;;;;10.65;7.13;;;13.70;99.90;;;;;;4916072;29;20795;-79
2023/08/28 06:25:49;;;;;;;9.32;7.47;;;13.70;99.90;;;;;;4915668;29;20047;-79
2023/08/28 06:28:15;;;;;;;8.95;7.63;;;13.70;99.90;;;;;;4917052;29;20445;-79
2023/08/28 06:30:41;;;;;;;9.63;7.72;;;13.70;99.90;;;;;;4915293;29;20032;-79
2023/08/28 06:33:07;;;;;;;8.85;6.60;;;13.60;99.90;;;;;;4918068;29;20051;-79
2023/08/28 06:35:32;;;;;;;9.30;6.88;;;13.70;99.90;;;;;;4918609;29;20454;-79
2023/08/28 06:37:58;;;;;;;8.32;6.82;;;13.70;99.90;;;;;;4918574;29;20032;-79
2023/08/28 06:40:24;;;;;;;8.15;7.35;;;13.70;99.90;;;;;;4915419;29;20099;-79
2023/08/28 06:42:49;;;;;;;8.25;6.18;;;13.60;99.90;;;;;;4916298;29;20047;-79
2023/08/28 06:45:15;;;;;;;9.63;6.72;;;13.70;99.90;;;;;;4911033;29;20034;-79
2023/08/28 06:47:41;;;;;;;9.20;5.90;;;13.70;99.90;;;;;;4908296;29;20063;-79
2023/08/28 06:50:07;;;;;;;8.10;5.70;;;13.70;99.90;;;;;;4909053;29;20046;-79
2023/08/28 06:52:32;;;;;;;6.55;5.65;;;13.70;99.90;;;;;;4909288;29;20414;-79
2023/08/28 06:54:58;;;;;;;6.55;4.95;;;13.70;99.90;;;;;;4909585;29;20036;-79
2023/08/28 06:57:23;;;;;;;6.20;4.60;;;13.60;99.90;;;;;;4909523;29;20743;-80
2023/08/28 06:59:49;;;;;;;5.30;4.35;;;13.60;99.90;;;;;;4909687;29;20111;-79
2023/08/28 07:02:15;;;;;;;8.07;4.30;;;13.60;99.90;;;;;;4910187;29;20024;-79
2023/08/28 07:04:41;;;;;;;5.82;4.05;;;13.60;99.90;;;;;;4910371;29;20063;-80
2023/08/28 07:07:06;;;;;;;8.38;4.57;;;13.50;99.90;;;;;;4909468;29;20024;-79
2023/08/28 07:09:32;;;;;;;7.13;4.97;;;13.50;99.90;;;;;;4914575;29;20036;-79
2023/08/28 07:11:58;;;;;;;9.23;5.68;;;13.50;99.90;;;;;;4912842;29;20055;-79
2023/08/28 07:14:24;;;;;;;9.82;5.53;;;13.50;99.90;;;;;;4911800;29;20043;-79
2023/08/28 07:16:49;;;;;;;8.25;5.65;;;13.50;99.90;;;;;;4911267;29;20090;-79
2023/08/28 07:19:15;;;;;;;9.18;5.38;;;13.50;99.90;;;;;;4910654;29;20036;-79
2023/08/28 07:21:40;;;;;;;9.23;5.00;;;13.50;99.90;;;;;;4913256;29;20163;-79
2023/08/28 07:24:06;;;;;;;5.93;4.50;;;13.60;99.90;;;;;;4916446;29;20087;-79
2023/08/28 07:26:32;;;;;;;7.57;4.68;;;13.60;99.90;;;;;;4913276;29;20090;-79
2023/08/28 07:28:57;;;;;;;7.10;4.90;;;13.50;99.90;;;;;;4915448;29;20048;-79
2023/08/28 07:31:23;;;;;;;6.35;4.72;;;13.50;99.90;;;;;;4912896;29;20059;-79
2023/08/28 07:33:49;;;;;;;7.80;5.10;;;13.50;99.90;;;;;;4915341;29;20499;-79
2023/08/28 07:36:21;;;;;;;5.43;4.82;;;13.50;99.90;;;;;;4913447;29;20105;-79
2023/08/28 07:38:47;;;;;;;6.00;4.53;;;13.50;99.90;;;;;;4913953;29;20035;-79
2023/08/28 07:41:13;;;;;;;8.52;4.63;;;13.50;99.90;;;;;;4915477;29;20060;-79
2023/08/28 07:43:38;;;;;;;5.93;4.57;;;13.50;99.90;;;;;;4916787;29;20152;-79
2023/08/28 07:46:04;;;;;;;5.53;4.10;;;13.50;99.90;;;;;;4912519;29;20036;-79
2023/08/28 07:48:30;;;;;;;4.80;3.70;;;13.60;99.90;;;;;;4914793;29;20043;-85
2023/08/28 07:50:55;;;;;;;6.05;3.97;;;13.60;99.90;;;;;;4912974;29;20039;-78
2023/08/28 07:53:21;;;;;;;5.85;3.72;;;13.60;99.90;;;;;;4912779;29;20035;-77
2023/08/28 07:55:47;;;;;;;7.05;4.13;;;13.60;99.90;;;;;;4907989;29;20034;-78
2023/08/28 07:58:13;;;;;;;4.78;3.75;;;13.60;99.90;;;;;;4916133;29;20035;-78
2023/08/28 08:00:40;;;;;;;3.60;3.05;;;13.70;99.90;;;;;;4920325;29;20460;-78
2023/08/28 08:03:05;;;;;;;3.17;2.60;;;13.60;99.90;;;;;;4921013;29;20043;-78
2023/08/28 08:05:34;;;;;;;3.75;3.00;;;13.60;99.90;;;;;;4916938;29;20032;-77
2023/08/28 08:08:00;;;;;;;3.88;2.72;;;13.60;99.90;;;;;;4918309;29;20028;-78
2023/08/28 08:10:26;;;;;;;6.07;2.70;;;13.60;99.90;;;;;;4919635;29;21021;-78
2023/08/28 08:12:51;;;;;;;4.18;2.42;;;13.60;99.90;;;;;;4918005;29;20098;-78
2023/08/28 08:15:17;;;;;;;3.17;2.40;;;13.60;99.90;;;;;;4918738;29;20020;-78
2023/08/28 08:17:42;;;;;;;3.08;2.25;;;13.60;99.90;;;;;;4919950;29;20683;-77
2023/08/28 08:20:11;;;;;;;5.10;2.00;;;13.60;99.90;;;;;;4918964;29;20029;-77
2023/08/28 08:22:42;;;;;;;2.72;2.00;;;13.50;99.90;;;;;;4916308;29;20027;-77
2023/08/28 08:25:09;;;;;;;3.13;2.00;;;13.50;99.90;;;;;;4914642;29;20043;-78
2023/08/28 08:27:34;;;;;;;4.00;2.03;;;13.50;99.90;;;;;;4917006;29;20045;-77
2023/08/28 08:30:00;;;;;;;6.72;2.40;;;13.40;99.90;;;;;;4917280;29;20024;-78
2023/08/28 08:32:25;;;;;;;3.40;2.08;;;13.40;99.90;;;;;;4915770;29;20075;-77
2023/08/28 08:34:51;;;;;;;4.18;2.20;;;13.40;99.90;;;;;;4917176;29;20575;-78
2023/08/28 08:37:16;;;;;;;3.28;1.95;;;13.40;99.90;;;;;;4916399;29;20586;-78
2023/08/28 08:39:42;;;;;;;4.03;2.47;;;13.30;99.90;;;;;;4916287;29;20122;-78
2023/08/28 08:42:08;;;;;;;4.85;2.53;;;13.30;99.90;;;;;;4916301;29;20032;-78
2023/08/28 08:44:35;;;;;;;4.65;2.58;;;13.30;99.90;;;;;;4915240;29;20115;-77
2023/08/28 08:47:04;;;;;;;6.70;2.40;;;13.30;99.90;;;;;;4916857;29;20210;-77
2023/08/28 08:49:31;;;;;;;7.93;3.03;;;13.30;99.90;;;;;;4911596;29;20040;-77
2023/08/28 08:52:00;;;;;;;6.10;2.83;;;13.30;99.90;;;;;;4914891;29;20061;-77
2023/08/28 08:54:31;;;;;;;3.92;2.17;;;13.40;99.90;;;;;;4913654;29;20032;-77
2023/08/28 08:57:00;;;;;;;5.47;2.55;;;13.40;99.90;;;;;;4917436;29;20084;-77
2023/08/28 08:59:26;;;;;;;6.50;3.30;;;13.40;99.90;;;;;;4916733;29;20027;-77
2023/08/28 09:01:52;;;;;;;5.97;2.75;;;13.50;99.90;;;;;;4917862;29;20028;-77
2023/08/28 09:04:19;;;;;;;3.75;2.53;;;13.50;99.90;;;;;;4917178;29;20028;-77
2023/08/28 09:06:47;;;;;;;3.45;2.63;;;13.60;99.90;;;;;;4917897;29;20115;-77
2023/08/28 09:09:15;;;;;;;5.22;2.60;;;13.60;99.90;;;;;;4919481;29;20059;-77
2023/08/28 09:11:42;;;;;;;4.30;2.70;;;13.70;99.90;;;;;;4917648;29;20032;-77
2023/08/28 09:14:08;;;;;;;3.85;3.10;;;13.70;99.90;;;;;;4917968;29;20036;-77
2023/08/28 09:16:34;;;;;;;3.85;2.70;;;13.70;99.90;;;;;;4914647;29;20112;-76
2023/08/28 09:19:00;;;;;;;5.82;3.42;;;13.80;99.90;;;;;;4918848;29;20027;-77
2023/08/28 09:21:27;;;;;;;3.92;3.28;;;13.80;99.90;;;;;;4882696;29;1036731;-77
2023/08/28 09:23:53;;;;;;;4.00;2.60;;;13.80;99.90;;;;;;4918063;29;20016;-77
2023/08/28 09:26:21;;;;;;;4.15;2.95;;;13.80;99.90;;;;;;4919013;29;20055;-76
2023/08/28 09:29:03;;;;;;;4.45;2.63;;;13.80;99.90;;;;;;4917191;29;20122;-76
2023/08/28 09:31:42;;;;;;;4.25;2.63;;;13.90;99.90;;;;;;4916164;29;20027;-77
2023/08/28 09:34:08;;;;;;;4.63;2.67;;;14.00;99.90;;;;;;4918534;29;21443;-77
2023/08/28 09:36:40;;;;;;;3.50;2.15;;;14.10;99.90;;;;;;4917769;29;20027;-76
2023/08/28 09:39:06;;;;;;;3.00;2.08;;;14.10;99.90;;;;;;4916525;29;20109;-76
2023/08/28 09:41:44;;;;;;;2.67;2.00;;;14.20;99.90;;;;;;4916850;29;20036;-77
2023/08/28 09:44:11;;;;;;;2.40;2.05;;;14.20;99.90;;;;;;4917493;29;20057;-76
2023/08/28 09:46:37;;;;;;;2.58;2.10;;;14.30;99.90;;;;;;4916401;29;20062;-76
2023/08/28 09:49:04;;;;;;;2.20;1.85;;;14.30;99.90;;;;;;4915673;29;20047;-76
2023/08/28 09:51:57;;;;;;;2.63;1.83;;;14.40;99.90;;;;;;4916341;29;20057;-77
2023/08/28 09:54:22;;;;;;;2.05;1.50;;;14.50;99.90;;;;;;4913778;29;20051;-76
2023/08/28 09:56:48;;;;;;;2.20;1.60;;;14.70;99.90;;;;;;4915093;29;20036;-76
2023/08/28 09:59:15;;;;;;;2.85;1.50;;;14.80;99.90;;;;;;4916325;29;20127;-76
2023/08/28 10:01:41;;;;;;;2.45;1.45;;;14.90;99.90;;;;;;4916434;29;20509;-77
2023/08/28 10:04:12;;;;;;;2.88;1.55;;;15.00;99.90;;;;;;4916783;29;20024;-77
2023/08/28 10:06:49;;;;;;;3.00;1.67;;;15.10;99.90;;;;;;4915234;29;20036;-76
2023/08/28 10:09:19;;;;;;;2.53;1.70;;;15.20;99.90;;;;;;4917502;29;20036;-76
2023/08/28 10:11:45;;;;;;;2.90;1.88;;;15.30;99.90;;;;;;4916394;29;20032;-76
2023/08/28 10:14:12;;;;;;;2.28;1.60;;;15.40;99.90;;;;;;4917178;29;20046;-77
2023/08/28 10:16:49;;;;;;;3.25;1.77;;;15.60;99.90;;;;;;4917706;29;20031;-76
2023/08/28 10:19:33;;;;;;;2.70;1.70;;;15.70;99.90;;;;;;4916005;29;20031;-77
2023/08/28 10:22:01;;;;;;;3.10;1.50;;;15.90;99.90;;;;;;4916806;29;20091;-77
2023/08/28 10:24:30;;;;;;;2.03;1.50;;;16.00;99.90;;;;;;4916459;29;20499;-77
2023/08/28 10:26:57;;;;;;;2.45;1.65;;;15.90;99.90;;;;;;4915573;29;20031;-77
2023/08/28 10:29:24;;;;;;;2.63;1.60;;;15.90;99.90;;;;;;4916985;29;20381;-77
2023/08/28 10:31:52;;;;;;;2.50;1.60;;;15.80;99.90;;;;;;4918634;29;20032;-77
2023/08/28 10:34:19;;;;;;;2.40;1.40;;;15.80;99.90;;;;;;4917541;29;20036;-77
2023/08/28 10:36:46;;;;;;;2.42;1.50;;;15.80;99.90;;;;;;4915717;29;20111;-77
2023/08/28 10:39:12;;;;;;;2.00;1.50;;;15.70;99.90;;;;;;4918104;29;20062;-77
2023/08/28 10:41:39;;;;;;;1.98;1.40;;;15.70;99.90;;;;;;4915368;29;20799;-77
2023/08/28 10:44:07;;;;;;;4.78;1.80;;;15.70;99.90;;;;;;4915428;29;20029;-77
2023/08/28 10:46:32;;;;;;;2.42;1.80;;;15.70;99.90;;;;;;4915090;29;20032;-77
2023/08/28 10:49:02;;;;;;;3.85;1.67;;;15.70;99.90;;;;;;4917212;29;20042;-77
2023/08/28 10:51:35;;;;;;;2.40;1.75;;;15.70;99.90;;;;;;4919149;29;20387;-77
2023/08/28 10:54:08;;;;;;;2.22;1.60;;;15.70;99.90;;;;;;4917700;29;20058;-76
2023/08/28 10:56:37;;;;;;;2.60;1.80;;;15.80;99.90;;;;;;4916690;29;20118;-77
2023/08/28 10:59:17;;;;;;;3.35;1.50;;;15.80;99.90;;;;;;4916014;29;20087;-77
2023/08/28 11:01:57;;;;;;;2.00;1.40;;;15.90;99.90;;;;;;4914654;29;21318;-77
2023/08/28 11:04:24;;;;;;;2.75;1.70;;;15.90;99.90;;;;;;4914201;29;20032;-77
2023/08/28 11:06:50;;;;;;;2.90;1.55;;;16.00;99.90;;;;;;4916870;29;20046;-77
2023/08/28 11:09:31;;;;;;;2.03;1.50;;;16.00;99.90;;;;;;4916289;29;20050;-77
2023/08/28 11:12:03;;;;;;;1.88;1.27;;;16.10;99.90;;;;;;4914762;29;20056;-77
2023/08/28 11:14:32;;;;;;;2.08;1.23;;;16.20;99.90;;;;;;4916962;29;20028;-77
2023/08/28 11:17:11;;;;;;;3.22;1.30;;;16.20;99.90;;;;;;4914676;29;20115;-77
2023/08/28 11:19:55;;;;;;;1.75;1.42;;;16.30;99.90;;;;;;4914567;29;20040;-77
2023/08/28 11:22:28;;;;;;;1.70;1.20;;;16.40;99.90;;;;;;4914856;29;20139;-77
2023/08/28 11:24:54;;;;;;;2.75;1.20;;;16.50;99.90;;;;;;4916318;29;20107;-77
2023/08/28 11:27:35;;;;;;;2.80;1.50;;;16.60;99.90;;;;;;4912696;29;20031;-77
2023/08/28 11:30:05;;;;;;;1.42;1.10;;;16.60;99.90;;;;;;4913937;29;20027;-77
2023/08/28 11:32:32;;;;;;;1.95;1.15;;;16.60;99.90;;;;;;4915087;29;20475;-77
2023/08/28 11:34:59;;;;;;;2.50;1.30;;;16.60;99.90;;;;;;4913842;29;20035;-77
2023/08/28 11:37:42;;;;;;;1.50;1.10;;;16.70;99.90;;;;;;4907896;29;20067;-76
2023/08/28 11:40:09;;;;;;;1.50;1.00;;;16.80;99.90;;;;;;4904845;29;20135;-76
2023/08/28 11:42:36;;;;;;;2.55;1.35;;;16.80;99.90;;;;;;4906812;29;20032;-76
2023/08/28 11:45:04;;;;;;;1.95;1.10;;;16.80;99.90;;;;;;4907700;29;20055;-76
2023/08/28 11:47:32;;;;;;;1.73;1.20;;;16.80;99.90;;;;;;4907790;29;20047;-76
2023/08/28 11:49:59;;;;;;;1.75;1.25;;;16.80;99.90;;;;;;4906947;29;20107;-76
2023/08/28 11:52:25;;;;;;;1.67;1.20;;;16.70;99.90;;;;;;4907625;29;20024;-76
2023/08/28 11:54:51;;;;;;;1.80;1.30;;;16.60;99.90;;;;;;4909269;29;20039;-76
2023/08/28 11:57:20;;;;;;;2.50;1.60;;;16.50;99.90;;;;;;4906013;29;20036;-76
2023/08/28 11:59:48;;;;;;;2.22;1.30;;;16.50;99.90;;;;;;4906619;29;20706;-76
2023/08/28 12:02:15;;;;;;;1.65;1.30;;;16.40;99.90;;;;;;4908039;29;20035;-76
2023/08/28 12:04:41;;;;;;;2.45;1.10;;;16.40;99.90;;;;;;4907681;29;20031;-76
2023/08/28 12:07:27;;;;;;;2.13;1.40;;;16.40;99.90;;;;;;4904600;29;20028;-76
2023/08/28 12:09:54;;;;;;;2.08;1.30;;;16.40;99.90;;;;;;4907911;29;20043;-76
2023/08/28 12:12:21;;;;;;;2.13;1.50;;;16.30;99.90;;;;;;4909720;29;21490;-75
2023/08/28 12:14:49;;;;;;;1.98;1.10;;;16.30;99.90;;;;;;4909795;29;20035;-75
2023/08/28 12:17:21;;;;;;;3.25;1.40;;;16.20;99.90;;;;;;4906594;29;20111;-76
2023/08/28 12:19:49;;;;;;;2.67;1.40;;;16.20;99.90;;;;;;4908665;29;20043;-76
2023/08/28 12:22:14;;;;;;;2.10;1.55;;;16.10;99.90;;;;;;4910090;29;20036;-76
2023/08/28 12:24:45;;;;;;;3.08;1.50;;;16.10;99.90;;;;;;4909569;29;20037;-75
2023/08/28 12:27:13;;;;;;;2.92;1.40;;;16.00;99.90;;;;;;4906199;29;20537;-76
2023/08/28 12:29:41;;;;;;;3.42;1.48;;;15.90;99.90;;;;;;4908605;29;20048;-76
2023/08/28 12:32:26;;;;;;;2.28;1.30;;;15.90;99.90;;;;;;4908672;29;20688;-75
2023/08/28 12:34:51;;;;;;;2.83;1.70;;;15.90;99.90;;;;;;4908425;29;20031;-76
2023/08/28 12:37:17;;;;;;;2.28;1.60;;;15.80;99.90;;;;;;4904093;29;20035;-75
2023/08/28 12:39:48;;;;;;;2.92;1.63;;;15.70;99.90;;;;;;4909122;29;20381;-75
2023/08/28 12:42:14;;;;;;;2.30;1.52;;;15.70;99.90;;;;;;4909452;29;20048;-75
2023/08/28 12:44:43;;;;;;;5.22;1.95;;;15.60;99.90;;;;;;4908140;29;20040;-76
2023/08/28 12:47:14;;;;;;;2.38;1.70;;;15.60;99.90;;;;;;4906774;29;20150;-75